createdAt,value
2022-10-17T00:05:42.793Z,14.52
2022-10-17T00:13:17.755Z,18.83
2022-10-17T00:28:26.443Z,13.23
2022-10-17T00:36:06.406Z,14.85
2022-10-17T00:44:00.360Z,14.05
2022-10-17T00:51:40.115Z,13.05
2022-10-17T00:59:17.168Z,13.65
2022-10-17T01:06:52.349Z,13.00
2022-10-17T01:14:34.292Z,11.77
2022-10-17T01:22:13.590Z,10.73
2022-10-17T01:30:04.980Z,12.77
2022-10-17T01:37:47.591Z,12.65
2022-10-17T01:45:28.744Z,9.73
2022-10-17T01:53:08.926Z,13.25
2022-10-17T02:00:46.453Z,10.77
2022-10-17T02:08:29.353Z,12.00
2022-10-17T02:16:14.966Z,9.55
2022-10-17T02:23:55.194Z,8.85
2022-10-17T02:31:34.816Z,9.18
2022-10-17T02:39:12.532Z,9.10
2022-10-17T02:46:53.328Z,10.57
2022-10-17T02:54:35.987Z,9.40
2022-10-17T03:02:09.753Z,8.32
2022-10-17T03:09:44.674Z,7.35
2022-10-17T03:17:19.631Z,11.25
2022-10-17T03:24:54.834Z,8.43
2022-10-17T03:32:28.441Z,8.45
2022-10-17T03:40:03.618Z,10.90
2022-10-17T03:47:37.346Z,10.38
2022-10-17T03:55:12.699Z,7.65
2022-10-17T04:02:46.379Z,6.90
2022-10-17T04:10:21.462Z,9.73
2022-10-17T04:17:55.491Z,7.15
2022-10-17T04:25:33.419Z,7.28
2022-10-17T04:33:10.078Z,8.20
2022-10-17T04:40:45.298Z,7.63
2022-10-17T04:48:19.141Z,8.18
2022-10-17T04:55:54.422Z,6.95
2022-10-17T05:03:28.253Z,6.68
2022-10-17T05:11:03.667Z,6.90
2022-10-17T05:18:37.777Z,8.93
2022-10-17T05:26:13.648Z,10.63
2022-10-17T05:33:47.563Z,7.53
2022-10-17T05:41:22.677Z,8.82
2022-10-17T05:48:56.481Z,7.13
2022-10-17T05:56:31.480Z,7.63
2022-10-17T06:11:40.336Z,7.25
2022-10-17T06:19:14.056Z,7.32
2022-10-17T06:26:50.957Z,8.85
2022-10-17T06:34:24.685Z,8.25
2022-10-17T06:41:59.971Z,8.18
2022-10-17T06:49:34.437Z,9.45
2022-10-17T06:57:09.560Z,9.47
2022-10-17T07:04:43.225Z,8.88
2022-10-17T07:12:18.351Z,7.57
2022-10-17T07:19:51.977Z,8.02
2022-10-17T07:27:28.375Z,9.10
2022-10-17T07:35:02.389Z,7.53
2022-10-17T07:50:18.322Z,8.63
2022-10-17T07:57:53.467Z,8.48
2022-10-17T08:05:27.521Z,12.93
2022-10-17T08:13:02.966Z,8.25
2022-10-17T08:20:36.958Z,6.82
2022-10-17T08:28:12.206Z,5.10
2022-10-17T08:35:45.919Z,4.70
2022-10-17T08:43:35.362Z,3.90
2022-10-17T08:51:16.566Z,4.85
2022-10-17T08:58:51.748Z,4.25
2022-10-17T09:06:30.118Z,6.70
2022-10-17T09:14:21.838Z,4.50
2022-10-17T09:22:00.834Z,5.38
2022-10-17T09:29:40.270Z,3.78
2022-10-17T09:37:18.302Z,4.10
2022-10-17T09:45:04.739Z,5.10
2022-10-17T09:52:47.569Z,3.78
2022-10-17T10:00:25.596Z,3.60
2022-10-17T10:08:04.425Z,2.85
2022-10-17T10:15:42.124Z,5.03
2022-10-17T10:23:18.461Z,3.25
2022-10-17T10:30:55.527Z,4.47
2022-10-17T10:38:30.275Z,3.45
2022-10-17T10:46:16.758Z,6.28
2022-10-17T10:53:56.679Z,2.95
2022-10-17T11:01:40.007Z,4.55
2022-10-17T11:09:24.545Z,4.78
2022-10-17T11:17:10.026Z,4.73
2022-10-17T11:24:49.668Z,4.57
2022-10-17T11:32:31.527Z,2.97
2022-10-17T11:40:18.091Z,4.30
2022-10-17T11:48:01.905Z,3.22
2022-10-17T11:55:38.344Z,3.45
2022-10-17T12:03:29.700Z,4.75
2022-10-17T12:11:11.282Z,5.75
2022-10-17T12:18:47.551Z,3.58
2022-10-17T12:26:27.678Z,3.85
2022-10-17T12:34:05.812Z,5.68
2022-10-17T12:42:00.601Z,4.35
2022-10-17T12:49:46.583Z,4.27
2022-10-17T12:57:26.259Z,3.35
2022-10-17T13:05:08.231Z,4.95
2022-10-17T13:12:41.918Z,4.43
2022-10-17T13:20:31.898Z,4.00
2022-10-17T13:28:12.820Z,2.20
2022-10-17T13:36:05.401Z,2.60
2022-10-17T13:43:39.855Z,3.58
2022-10-17T13:51:14.886Z,2.95
2022-10-17T13:58:50.586Z,3.55
2022-10-17T14:06:27.194Z,4.30
2022-10-17T14:14:02.736Z,4.25
2022-10-17T14:21:44.408Z,2.67
2022-10-17T14:29:26.378Z,3.42
2022-10-17T14:37:02.923Z,2.50
2022-10-17T14:44:37.433Z,2.55
2022-10-17T14:52:32.890Z,4.88
2022-10-17T15:07:43.101Z,2.95
2022-10-17T15:15:16.893Z,7.20
2022-10-17T15:22:51.879Z,3.97
2022-10-17T15:30:27.546Z,3.50
2022-10-17T15:38:02.651Z,5.00
2022-10-17T15:45:36.485Z,3.20
2022-10-17T15:53:12.791Z,3.92
2022-10-17T16:00:46.964Z,3.17
2022-10-17T16:08:22.005Z,8.90
2022-10-17T16:15:55.624Z,3.80
2022-10-17T16:23:32.218Z,5.53
2022-10-17T16:31:06.198Z,6.03
2022-10-17T16:38:41.328Z,6.90
2022-10-17T16:46:15.119Z,6.85
2022-10-17T16:54:02.004Z,5.72
2022-10-17T17:01:35.795Z,5.90
2022-10-17T17:09:11.406Z,4.90
2022-10-17T17:16:45.210Z,3.33
2022-10-17T17:24:21.922Z,5.22
2022-10-17T17:31:55.593Z,4.57
2022-10-17T17:39:31.702Z,3.50
2022-10-17T17:47:05.379Z,4.60
2022-10-17T17:54:41.099Z,4.15
2022-10-17T18:02:14.990Z,4.88
2022-10-17T18:09:51.126Z,4.80
2022-10-17T18:17:25.029Z,6.68
2022-10-17T18:25:01.235Z,5.28
2022-10-17T18:32:35.061Z,5.97
2022-10-17T18:40:11.198Z,5.47
2022-10-17T18:47:45.292Z,9.05
2022-10-17T18:55:20.884Z,6.20
2022-10-17T19:02:54.731Z,8.40
2022-10-17T19:10:29.718Z,6.85
2022-10-17T19:25:38.930Z,10.25
2022-10-17T19:33:12.571Z,11.02
2022-10-17T19:40:48.460Z,9.40
2022-10-17T19:48:22.231Z,13.32
2022-10-17T19:55:58.008Z,10.10
2022-10-17T20:03:31.723Z,10.80
2022-10-17T20:11:08.681Z,10.20
2022-10-17T20:18:43.254Z,9.23
2022-10-17T20:34:16.353Z,11.15
2022-10-17T20:41:51.854Z,9.68
2022-10-17T20:49:26.014Z,8.23
2022-10-17T20:57:04.031Z,14.23
2022-10-17T21:04:47.202Z,7.50
2022-10-17T21:12:31.402Z,8.20
2022-10-17T21:20:11.936Z,7.82
2022-10-17T21:35:20.790Z,8.02
2022-10-17T21:42:57.056Z,7.00
2022-10-17T21:50:31.868Z,7.63
2022-10-17T21:58:07.144Z,8.20
2022-10-17T22:05:40.850Z,7.25
2022-10-17T22:13:16.248Z,7.57
2022-10-17T22:20:49.848Z,6.93
2022-10-17T22:28:26.039Z,7.40
2022-10-17T22:35:59.861Z,5.90
2022-10-17T22:43:34.892Z,6.75
2022-10-17T22:58:44.064Z,9.07
2022-10-17T23:06:18.018Z,7.00
2022-10-17T23:13:53.084Z,10.02
2022-10-17T23:29:01.809Z,9.20
2022-10-17T23:36:35.604Z,8.43
2022-10-17T23:44:11.466Z,9.95
2022-10-17T23:51:45.117Z,9.02
2022-10-17T23:59:20.183Z,10.13
